sensor_id;sensor_type;location;lat;lon;timestamp;pressure;altitude;pressure_sealevel;temperature;humidity
9415;BME280;4746;35.664;139.738;2023-04-15T00:00:49;100035.72;;;20.35;55.31
9415;BME280;4746;35.664;139.738;2023-04-15T00:03:18;100030.28;;;20.41;55.34
9415;BME280;4746;35.664;139.738;2023-04-15T00:05:45;100027.47;;;20.47;54.78
9415;BME280;4746;35.664;139.738;2023-04-15T00:08:13;100025.59;;;20.51;54.98
9415;BME280;4746;35.664;139.738;2023-04-15T00:10:42;100027.25;;;20.53;55.18
9415;BME280;4746;35.664;139.738;2023-04-15T00:13:12;100028.00;;;20.57;55.27
9415;BME280;4746;35.664;139.738;2023-04-15T00:15:40;100026.34;;;20.54;55.22
9415;BME280;4746;35.664;139.738;2023-04-15T00:18:08;100020.34;;;20.52;54.68
9415;BME280;4746;35.664;139.738;2023-04-15T00:20:35;100016.22;;;20.47;54.78
9415;BME280;4746;35.664;139.738;2023-04-15T00:23:03;100013.56;;;20.48;55.12
9415;BME280;4746;35.664;139.738;2023-04-15T00:25:31;100012.59;;;20.51;55.26
9415;BME280;4746;35.664;139.738;2023-04-15T00:27:59;100009.91;;;20.52;55.36
9415;BME280;4746;35.664;139.738;2023-04-15T00:30:26;100019.44;;;20.53;55.09
9415;BME280;4746;35.664;139.738;2023-04-15T00:32:54;100012.66;;;20.49;55.23
9415;BME280;4746;35.664;139.738;2023-04-15T00:35:24;100018.75;;;20.48;55.45
9415;BME280;4746;35.664;139.738;2023-04-15T00:37:52;100015.34;;;20.46;55.69
9415;BME280;4746;35.664;139.738;2023-04-15T00:40:21;100012.81;;;20.45;55.42
9415;BME280;4746;35.664;139.738;2023-04-15T00:42:51;100011.75;;;20.50;55.78
9415;BME280;4746;35.664;139.738;2023-04-15T00:45:18;100021.28;;;20.50;55.90
9415;BME280;4746;35.664;139.738;2023-04-15T00:47:46;100023.06;;;20.49;55.88
9415;BME280;4746;35.664;139.738;2023-04-15T00:50:14;100014.34;;;20.50;56.08
9415;BME280;4746;35.664;139.738;2023-04-15T00:52:41;100016.84;;;20.53;55.74
9415;BME280;4746;35.664;139.738;2023-04-15T00:55:09;100013.50;;;20.50;55.95
9415;BME280;4746;35.664;139.738;2023-04-15T00:57:38;100018.69;;;20.50;56.33
9415;BME280;4746;35.664;139.738;2023-04-15T01:00:09;100018.84;;;20.45;56.26
9415;BME280;4746;35.664;139.738;2023-04-15T01:02:37;100029.47;;;20.39;56.70
9415;BME280;4746;35.664;139.738;2023-04-15T01:05:05;100030.41;;;20.38;56.62
9415;BME280;4746;35.664;139.738;2023-04-15T01:07:33;100024.53;;;20.33;56.29
9415;BME280;4746;35.664;139.738;2023-04-15T01:10:02;100025.66;;;20.25;55.98
9415;BME280;4746;35.664;139.738;2023-04-15T01:12:32;100018.03;;;20.21;56.16
9415;BME280;4746;35.664;139.738;2023-04-15T01:15:01;100003.38;;;20.18;56.37
9415;BME280;4746;35.664;139.738;2023-04-15T01:17:28;100001.84;;;20.13;56.55
9415;BME280;4746;35.664;139.738;2023-04-15T01:19:59;99983.63;;;20.13;56.70
9415;BME280;4746;35.664;139.738;2023-04-15T01:22:27;99973.13;;;20.16;56.81
9415;BME280;4746;35.664;139.738;2023-04-15T01:25:11;99953.09;;;20.18;56.59
9415;BME280;4746;35.664;139.738;2023-04-15T01:27:42;99943.56;;;20.17;57.19
9415;BME280;4746;35.664;139.738;2023-04-15T01:30:10;99940.81;;;20.21;57.27
9415;BME280;4746;35.664;139.738;2023-04-15T01:32:43;99926.84;;;20.23;57.18
9415;BME280;4746;35.664;139.738;2023-04-15T01:35:10;99926.78;;;20.25;57.18
9415;BME280;4746;35.664;139.738;2023-04-15T01:37:38;99926.69;;;20.28;57.46
9415;BME280;4746;35.664;139.738;2023-04-15T01:40:07;99918.72;;;20.32;57.59
9415;BME280;4746;35.664;139.738;2023-04-15T01:42:37;99916.00;;;20.35;57.11
9415;BME280;4746;35.664;139.738;2023-04-15T01:45:05;99899.47;;;20.36;57.52
9415;BME280;4746;35.664;139.738;2023-04-15T01:47:34;99892.56;;;20.35;57.58
9415;BME280;4746;35.664;139.738;2023-04-15T01:50:01;99883.72;;;20.39;57.61
9415;BME280;4746;35.664;139.738;2023-04-15T01:52:31;99880.00;;;20.46;57.84
9415;BME280;4746;35.664;139.738;2023-04-15T01:54:58;99882.31;;;20.54;57.77
9415;BME280;4746;35.664;139.738;2023-04-15T01:57:26;99894.00;;;20.65;58.02
9415;BME280;4746;35.664;139.738;2023-04-15T01:59:53;99902.19;;;20.79;57.70
9415;BME280;4746;35.664;139.738;2023-04-15T02:02:24;99899.03;;;20.93;57.61
9415;BME280;4746;35.664;139.738;2023-04-15T02:04:51;99890.97;;;20.98;57.74
9415;BME280;4746;35.664;139.738;2023-04-15T02:07:19;99880.13;;;21.09;57.33
9415;BME280;4746;35.664;139.738;2023-04-15T02:09:46;99887.69;;;21.15;56.91
9415;BME280;4746;35.664;139.738;2023-04-15T02:12:14;99896.94;;;21.22;56.82
9415;BME280;4746;35.664;139.738;2023-04-15T02:14:41;99888.13;;;21.24;57.06
9415;BME280;4746;35.664;139.738;2023-04-15T02:17:09;99899.44;;;21.25;56.67
9415;BME280;4746;35.664;139.738;2023-04-15T02:19:37;99899.53;;;21.22;56.70
9415;BME280;4746;35.664;139.738;2023-04-15T02:22:06;99890.09;;;21.19;56.58
9415;BME280;4746;35.664;139.738;2023-04-15T02:24:35;99867.34;;;21.23;56.64
9415;BME280;4746;35.664;139.738;2023-04-15T02:27:02;99859.28;;;21.29;56.19
9415;BME280;4746;35.664;139.738;2023-04-15T02:29:31;99864.25;;;21.35;56.34
9415;BME280;4746;35.664;139.738;2023-04-15T02:31:59;99853.06;;;21.33;56.11
9415;BME280;4746;35.664;139.738;2023-04-15T02:34:26;99859.03;;;21.35;55.55
9415;BME280;4746;35.664;139.738;2023-04-15T02:36:54;99845.88;;;21.38;55.58
9415;BME280;4746;35.664;139.738;2023-04-15T02:39:23;99858.84;;;21.39;55.95
9415;BME280;4746;35.664;139.738;2023-04-15T02:41:50;99837.28;;;21.36;55.97
9415;BME280;4746;35.664;139.738;2023-04-15T02:44:18;99822.88;;;21.47;55.99
9415;BME280;4746;35.664;139.738;2023-04-15T02:46:46;99816.69;;;21.50;55.76
9415;BME280;4746;35.664;139.738;2023-04-15T02:49:17;99808.06;;;21.48;55.60
9415;BME280;4746;35.664;139.738;2023-04-15T02:51:44;99793.25;;;21.48;55.99
9415;BME280;4746;35.664;139.738;2023-04-15T02:54:19;99784.22;;;21.57;55.85
9415;BME280;4746;35.664;139.738;2023-04-15T02:56:49;99775.28;;;21.62;55.89
9415;BME280;4746;35.664;139.738;2023-04-15T02:59:16;99755.25;;;21.63;55.92
9415;BME280;4746;35.664;139.738;2023-04-15T03:01:44;99761.56;;;21.77;55.68
9415;BME280;4746;35.664;139.738;2023-04-15T03:04:11;99759.53;;;21.83;55.52
9415;BME280;4746;35.664;139.738;2023-04-15T03:06:40;99739.56;;;21.82;55.35
9415;BME280;4746;35.664;139.738;2023-04-15T03:09:07;99734.72;;;21.75;55.37
9415;BME280;4746;35.664;139.738;2023-04-15T03:11:35;99736.34;;;21.77;55.54
9415;BME280;4746;35.664;139.738;2023-04-15T03:14:06;99743.72;;;21.86;55.30
9415;BME280;4746;35.664;139.738;2023-04-15T03:16:33;99740.13;;;21.89;55.16
9415;BME280;4746;35.664;139.738;2023-04-15T03:19:01;99733.00;;;21.92;55.24
9415;BME280;4746;35.664;139.738;2023-04-15T03:21:28;99720.59;;;21.97;54.90
9415;BME280;4746;35.664;139.738;2023-04-15T03:23:57;99717.41;;;22.09;54.53
9415;BME280;4746;35.664;139.738;2023-04-15T03:26:30;99714.22;;;22.21;54.00
9415;BME280;4746;35.664;139.738;2023-04-15T03:28:57;99705.06;;;22.13;54.09
9415;BME280;4746;35.664;139.738;2023-04-15T03:31:25;99692.78;;;22.15;54.09
9415;BME280;4746;35.664;139.738;2023-04-15T03:33:52;99698.72;;;22.18;53.81
9415;BME280;4746;35.664;139.738;2023-04-15T03:36:20;99699.53;;;22.19;54.00
9415;BME280;4746;35.664;139.738;2023-04-15T03:38:47;99688.19;;;22.20;53.57
9415;BME280;4746;35.664;139.738;2023-04-15T03:41:15;99674.34;;;22.18;53.49
9415;BME280;4746;35.664;139.738;2023-04-15T03:43:43;99664.69;;;22.20;53.05
9415;BME280;4746;35.664;139.738;2023-04-15T03:46:10;99651.56;;;22.21;52.80
9415;BME280;4746;35.664;139.738;2023-04-15T03:48:38;99649.91;;;22.20;52.64
9415;BME280;4746;35.664;139.738;2023-04-15T03:51:05;99646.66;;;22.15;52.41
9415;BME280;4746;35.664;139.738;2023-04-15T03:53:33;99630.44;;;22.09;52.34
9415;BME280;4746;35.664;139.738;2023-04-15T03:56:00;99617.56;;;22.06;52.08
9415;BME280;4746;35.664;139.738;2023-04-15T03:58:28;99612.28;;;22.07;52.32
9415;BME280;4746;35.664;139.738;2023-04-15T04:00:55;99607.19;;;22.04;52.01
9415;BME280;4746;35.664;139.738;2023-04-15T04:03:23;99603.97;;;21.99;52.24
9415;BME280;4746;35.664;139.738;2023-04-15T04:05:51;99593.38;;;22.02;51.93
9415;BME280;4746;35.664;139.738;2023-04-15T04:08:19;99587.81;;;21.91;52.43
9415;BME280;4746;35.664;139.738;2023-04-15T04:10:47;99572.72;;;21.81;52.44
9415;BME280;4746;35.664;139.738;2023-04-15T04:13:15;99569.53;;;21.74;52.45
9415;BME280;4746;35.664;139.738;2023-04-15T04:15:42;99579.22;;;21.72;52.67
9415;BME280;4746;35.664;139.738;2023-04-15T04:18:10;99589.94;;;21.67;53.08
9415;BME280;4746;35.664;139.738;2023-04-15T04:20:38;99605.00;;;21.60;53.41
9415;BME280;4746;35.664;139.738;2023-04-15T04:23:05;99590.59;;;21.52;53.63
9415;BME280;4746;35.664;139.738;2023-04-15T04:25:33;99564.00;;;21.45;53.89
9415;BME280;4746;35.664;139.738;2023-04-15T04:28:00;99575.41;;;21.43;54.21
9415;BME280;4746;35.664;139.738;2023-04-15T04:30:28;99558.66;;;21.30;54.01
9415;BME280;4746;35.664;139.738;2023-04-15T04:32:56;99543.28;;;21.24;54.20
9415;BME280;4746;35.664;139.738;2023-04-15T04:35:23;99531.09;;;21.24;54.40
9415;BME280;4746;35.664;139.738;2023-04-15T04:37:51;99511.03;;;21.26;54.52
9415;BME280;4746;35.664;139.738;2023-04-15T04:40:19;99496.09;;;21.30;54.76
9415;BME280;4746;35.664;139.738;2023-04-15T04:42:47;99486.66;;;21.27;54.42
9415;BME280;4746;35.664;139.738;2023-04-15T04:45:15;99479.84;;;21.25;54.89
9415;BME280;4746;35.664;139.738;2023-04-15T04:47:42;99465.44;;;21.35;55.12
9415;BME280;4746;35.664;139.738;2023-04-15T04:50:10;99468.66;;;21.40;54.98
9415;BME280;4746;35.664;139.738;2023-04-15T04:52:38;99470.16;;;21.45;55.08
9415;BME280;4746;35.664;139.738;2023-04-15T04:55:06;99476.81;;;21.51;55.03
9415;BME280;4746;35.664;139.738;2023-04-15T04:57:34;99486.47;;;21.49;54.91
9415;BME280;4746;35.664;139.738;2023-04-15T05:00:04;99485.78;;;21.45;54.83
9415;BME280;4746;35.664;139.738;2023-04-15T05:02:35;99488.69;;;21.39;55.11
9415;BME280;4746;35.664;139.738;2023-04-15T05:05:03;99466.06;;;21.40;54.92
9415;BME280;4746;35.664;139.738;2023-04-15T05:07:30;99459.00;;;21.42;55.25
9415;BME280;4746;35.664;139.738;2023-04-15T05:09:58;99431.25;;;21.41;55.20
9415;BME280;4746;35.664;139.738;2023-04-15T05:12:25;99422.22;;;21.48;55.07
9415;BME280;4746;35.664;139.738;2023-04-15T05:14:53;99415.19;;;21.50;55.14
9415;BME280;4746;35.664;139.738;2023-04-15T05:17:20;99406.56;;;21.48;55.27
9415;BME280;4746;35.664;139.738;2023-04-15T05:19:48;99404.88;;;21.47;55.15
9415;BME280;4746;35.664;139.738;2023-04-15T05:22:15;99409.31;;;21.45;55.57
9415;BME280;4746;35.664;139.738;2023-04-15T05:24:43;99404.19;;;21.43;55.38
9415;BME280;4746;35.664;139.738;2023-04-15T05:27:11;99385.41;;;21.37;55.55
9415;BME280;4746;35.664;139.738;2023-04-15T05:29:38;99388.16;;;21.34;56.17
9415;BME280;4746;35.664;139.738;2023-04-15T05:32:06;99393.53;;;21.31;55.85
9415;BME280;4746;35.664;139.738;2023-04-15T05:34:34;99386.94;;;21.24;55.83
9415;BME280;4746;35.664;139.738;2023-04-15T05:37:01;99393.13;;;21.21;56.28
9415;BME280;4746;35.664;139.738;2023-04-15T05:39:29;99382.72;;;21.21;56.38
9415;BME280;4746;35.664;139.738;2023-04-15T05:41:58;99372.22;;;21.23;56.53
9415;BME280;4746;35.664;139.738;2023-04-15T05:44:26;99364.47;;;21.21;56.90
9415;BME280;4746;35.664;139.738;2023-04-15T05:46:53;99376.50;;;21.24;57.09
9415;BME280;4746;35.664;139.738;2023-04-15T05:49:21;99367.78;;;21.25;57.03
9415;BME280;4746;35.664;139.738;2023-04-15T05:51:48;99395.03;;;21.18;57.28
9415;BME280;4746;35.664;139.738;2023-04-15T05:54:16;99399.41;;;21.00;57.42
9415;BME280;4746;35.664;139.738;2023-04-15T05:56:44;99386.59;;;20.96;58.08
9415;BME280;4746;35.664;139.738;2023-04-15T05:59:12;99374.31;;;20.98;57.92
9415;BME280;4746;35.664;139.738;2023-04-15T06:01:39;99356.84;;;21.00;58.04
9415;BME280;4746;35.664;139.738;2023-04-15T06:04:07;99348.25;;;20.98;57.88
9415;BME280;4746;35.664;139.738;2023-04-15T06:06:35;99341.53;;;20.94;57.93
9415;BME280;4746;35.664;139.738;2023-04-15T06:09:03;99352.25;;;20.88;58.07
9415;BME280;4746;35.664;139.738;2023-04-15T06:11:31;99341.13;;;20.85;58.10
9415;BME280;4746;35.664;139.738;2023-04-15T06:13:58;99337.97;;;20.78;58.43
9415;BME280;4746;35.664;139.738;2023-04-15T06:16:26;99332.91;;;20.75;58.35
9415;BME280;4746;35.664;139.738;2023-04-15T06:18:53;99311.28;;;20.73;58.52
9415;BME280;4746;35.664;139.738;2023-04-15T06:21:21;99307.06;;;20.71;58.61
9415;BME280;4746;35.664;139.738;2023-04-15T06:23:48;99299.06;;;20.75;58.68
9415;BME280;4746;35.664;139.738;2023-04-15T06:26:16;99281.78;;;20.74;58.86
9415;BME280;4746;35.664;139.738;2023-04-15T06:28:43;99278.16;;;20.77;58.55
9415;BME280;4746;35.664;139.738;2023-04-15T06:31:11;99272.88;;;20.78;58.52
9415;BME280;4746;35.664;139.738;2023-04-15T06:33:38;99265.38;;;20.89;58.02
9415;BME280;4746;35.664;139.738;2023-04-15T06:36:06;99262.59;;;20.92;58.33
9415;BME280;4746;35.664;139.738;2023-04-15T06:38:33;99254.78;;;20.92;58.50
9415;BME280;4746;35.664;139.738;2023-04-15T06:41:02;99256.66;;;20.90;58.67
9415;BME280;4746;35.664;139.738;2023-04-15T06:43:30;99246.06;;;20.76;59.21
9415;BME280;4746;35.664;139.738;2023-04-15T06:45:58;99242.63;;;20.76;59.58
9415;BME280;4746;35.664;139.738;2023-04-15T06:48:25;99238.94;;;20.80;59.50
9415;BME280;4746;35.664;139.738;2023-04-15T06:50:53;99233.66;;;20.81;59.62
9415;BME280;4746;35.664;139.738;2023-04-15T06:53:21;99225.00;;;20.81;59.65
9415;BME280;4746;35.664;139.738;2023-04-15T06:55:48;99218.47;;;20.72;59.55
9415;BME280;4746;35.664;139.738;2023-04-15T06:58:16;99206.53;;;20.68;59.57
9415;BME280;4746;35.664;139.738;2023-04-15T07:00:44;99198.84;;;20.65;59.53
9415;BME280;4746;35.664;139.738;2023-04-15T07:03:12;99193.81;;;20.62;59.90
9415;BME280;4746;35.664;139.738;2023-04-15T07:05:41;99195.94;;;20.54;59.81
9415;BME280;4746;35.664;139.738;2023-04-15T07:08:08;99188.53;;;20.47;59.99
9415;BME280;4746;35.664;139.738;2023-04-15T07:10:36;99175.72;;;20.42;60.08
9415;BME280;4746;35.664;139.738;2023-04-15T07:13:04;99168.06;;;20.39;60.56
9415;BME280;4746;35.664;139.738;2023-04-15T07:15:32;99166.44;;;20.37;60.78
9415;BME280;4746;35.664;139.738;2023-04-15T07:18:00;99149.31;;;20.33;60.49
9415;BME280;4746;35.664;139.738;2023-04-15T07:20:30;99153.19;;;20.24;60.66
9415;BME280;4746;35.664;139.738;2023-04-15T07:22:57;99148.28;;;20.19;60.83
9415;BME280;4746;35.664;139.738;2023-04-15T07:25:25;99145.22;;;20.11;61.02
9415;BME280;4746;35.664;139.738;2023-04-15T07:27:53;99144.59;;;20.06;61.13
9415;BME280;4746;35.664;139.738;2023-04-15T07:30:20;99146.22;;;19.90;61.63
9415;BME280;4746;35.664;139.738;2023-04-15T07:32:48;99140.38;;;19.85;61.83
9415;BME280;4746;35.664;139.738;2023-04-15T07:35:16;99127.88;;;19.93;61.61
9415;BME280;4746;35.664;139.738;2023-04-15T07:37:48;99121.72;;;19.95;61.73
9415;BME280;4746;35.664;139.738;2023-04-15T07:40:15;99121.00;;;19.92;61.90
9415;BME280;4746;35.664;139.738;2023-04-15T07:42:44;99115.84;;;19.90;61.91
9415;BME280;4746;35.664;139.738;2023-04-15T07:45:11;99103.69;;;19.91;61.85
9415;BME280;4746;35.664;139.738;2023-04-15T07:47:39;99090.78;;;19.89;62.17
9415;BME280;4746;35.664;139.738;2023-04-15T07:50:08;99069.28;;;19.86;62.30
9415;BME280;4746;35.664;139.738;2023-04-15T07:52:37;99072.22;;;19.78;62.27
9415;BME280;4746;35.664;139.738;2023-04-15T07:55:09;99049.97;;;19.73;62.16
9415;BME280;4746;35.664;139.738;2023-04-15T07:57:37;99065.72;;;19.70;62.55
9415;BME280;4746;35.664;139.738;2023-04-15T08:00:05;99039.72;;;19.70;62.59
9415;BME280;4746;35.664;139.738;2023-04-15T08:02:34;99034.59;;;19.68;62.86
9415;BME280;4746;35.664;139.738;2023-04-15T08:05:02;99028.56;;;19.68;62.99
9415;BME280;4746;35.664;139.738;2023-04-15T08:07:30;99011.44;;;19.64;62.36
9415;BME280;4746;35.664;139.738;2023-04-15T08:09:58;99015.88;;;19.62;63.12
9415;BME280;4746;35.664;139.738;2023-04-15T08:12:25;99002.88;;;19.62;62.93
9415;BME280;4746;35.664;139.738;2023-04-15T08:14:54;98993.41;;;19.61;63.31
9415;BME280;4746;35.664;139.738;2023-04-15T08:17:23;98986.44;;;19.61;63.31
9415;BME280;4746;35.664;139.738;2023-04-15T08:19:51;98984.81;;;19.59;63.34
9415;BME280;4746;35.664;139.738;2023-04-15T08:22:19;98982.38;;;19.56;63.56
9415;BME280;4746;35.664;139.738;2023-04-15T08:24:47;98966.78;;;19.56;63.61
9415;BME280;4746;35.664;139.738;2023-04-15T08:27:14;98959.91;;;19.55;63.75
9415;BME280;4746;35.664;139.738;2023-04-15T08:29:42;98963.59;;;19.51;64.31
9415;BME280;4746;35.664;139.738;2023-04-15T08:32:09;98970.53;;;19.51;63.97
9415;BME280;4746;35.664;139.738;2023-04-15T08:34:37;98970.59;;;19.49;64.13
9415;BME280;4746;35.664;139.738;2023-04-15T08:37:04;98978.59;;;19.45;63.97
9415;BME280;4746;35.664;139.738;2023-04-15T08:39:32;98976.00;;;19.45;64.32
9415;BME280;4746;35.664;139.738;2023-04-15T08:42:03;98985.50;;;19.46;64.02
9415;BME280;4746;35.664;139.738;2023-04-15T08:44:36;98990.00;;;19.42;64.26
9415;BME280;4746;35.664;139.738;2023-04-15T08:47:07;98987.59;;;19.38;64.38
9415;BME280;4746;35.664;139.738;2023-04-15T08:49:40;98980.06;;;19.33;64.28
9415;BME280;4746;35.664;139.738;2023-04-15T08:52:09;98970.88;;;19.26;64.86
9415;BME280;4746;35.664;139.738;2023-04-15T08:54:38;98964.16;;;19.22;64.76
9415;BME280;4746;35.664;139.738;2023-04-15T08:57:06;98947.78;;;19.20;64.84
9415;BME280;4746;35.664;139.738;2023-04-15T08:59:34;98942.72;;;19.17;65.12
9415;BME280;4746;35.664;139.738;2023-04-15T09:02:03;98941.06;;;19.16;65.41
9415;BME280;4746;35.664;139.738;2023-04-15T09:04:33;98939.22;;;19.18;65.15
9415;BME280;4746;35.664;139.738;2023-04-15T09:07:00;98931.59;;;19.15;65.67
9415;BME280;4746;35.664;139.738;2023-04-15T09:09:28;98920.41;;;19.13;65.48
9415;BME280;4746;35.664;139.738;2023-04-15T09:11:57;98905.91;;;19.09;65.66
9415;BME280;4746;35.664;139.738;2023-04-15T09:14:25;98912.09;;;19.05;65.76
9415;BME280;4746;35.664;139.738;2023-04-15T09:17:03;98909.50;;;19.05;65.72
9415;BME280;4746;35.664;139.738;2023-04-15T09:19:31;98888.28;;;18.97;66.05
9415;BME280;4746;35.664;139.738;2023-04-15T09:22:02;98894.06;;;18.85;66.43
9415;BME280;4746;35.664;139.738;2023-04-15T09:24:38;98892.97;;;18.89;66.44
9415;BME280;4746;35.664;139.738;2023-04-15T09:27:09;98881.97;;;18.84;66.99
9415;BME280;4746;35.664;139.738;2023-04-15T09:29:37;98857.72;;;18.85;66.84
9415;BME280;4746;35.664;139.738;2023-04-15T09:32:15;98864.59;;;18.86;66.85
9415;BME280;4746;35.664;139.738;2023-04-15T09:34:43;98858.00;;;18.80;67.12
9415;BME280;4746;35.664;139.738;2023-04-15T09:37:11;98858.84;;;18.80;67.39
9415;BME280;4746;35.664;139.738;2023-04-15T09:39:51;98850.84;;;18.84;66.92
9415;BME280;4746;35.664;139.738;2023-04-15T09:42:19;98865.78;;;18.80;67.42
9415;BME280;4746;35.664;139.738;2023-04-15T09:44:50;98868.38;;;18.80;67.72
9415;BME280;4746;35.664;139.738;2023-04-15T09:47:32;98855.25;;;18.82;67.20
9415;BME280;4746;35.664;139.738;2023-04-15T09:50:00;98859.06;;;18.76;67.53
9415;BME280;4746;35.664;139.738;2023-04-15T09:52:28;98851.41;;;18.73;67.52
9415;BME280;4746;35.664;139.738;2023-04-15T09:55:00;98849.59;;;18.75;67.45
9415;BME280;4746;35.664;139.738;2023-04-15T09:57:39;98838.16;;;18.79;67.62
9415;BME280;4746;35.664;139.738;2023-04-15T10:00:08;98835.03;;;18.72;67.62
9415;BME280;4746;35.664;139.738;2023-04-15T10:02:39;98827.22;;;18.72;67.69
9415;BME280;4746;35.664;139.738;2023-04-15T10:05:14;98826.28;;;18.73;67.60
9415;BME280;4746;35.664;139.738;2023-04-15T10:07:43;98816.91;;;18.71;68.13
9415;BME280;4746;35.664;139.738;2023-04-15T10:10:16;98829.97;;;18.69;67.96
9415;BME280;4746;35.664;139.738;2023-04-15T10:12:45;98837.13;;;18.64;68.09
9415;BME280;4746;35.664;139.738;2023-04-15T10:15:17;98833.84;;;18.61;67.72
9415;BME280;4746;35.664;139.738;2023-04-15T10:17:47;98849.69;;;18.55;68.15
9415;BME280;4746;35.664;139.738;2023-04-15T10:20:18;98857.63;;;18.52;67.73
9415;BME280;4746;35.664;139.738;2023-04-15T10:22:48;98857.75;;;18.49;67.87
9415;BME280;4746;35.664;139.738;2023-04-15T10:25:16;98844.00;;;18.47;68.16
9415;BME280;4746;35.664;139.738;2023-04-15T10:27:44;98851.03;;;18.45;68.19
9415;BME280;4746;35.664;139.738;2023-04-15T10:30:15;98856.22;;;18.45;68.47
9415;BME280;4746;35.664;139.738;2023-04-15T10:32:45;98845.97;;;18.42;68.65
9415;BME280;4746;35.664;139.738;2023-04-15T10:35:14;98839.09;;;18.41;68.64
9415;BME280;4746;35.664;139.738;2023-04-15T10:37:42;98830.56;;;18.39;68.68
9415;BME280;4746;35.664;139.738;2023-04-15T10:40:30;98828.59;;;18.44;68.24
9415;BME280;4746;35.664;139.738;2023-04-15T10:43:01;98822.41;;;18.46;68.06
9415;BME280;4746;35.664;139.738;2023-04-15T10:45:36;98793.06;;;18.46;68.09
9415;BME280;4746;35.664;139.738;2023-04-15T10:48:07;98819.00;;;18.46;68.13
9415;BME280;4746;35.664;139.738;2023-04-15T10:50:36;98832.00;;;18.44;68.27
9415;BME280;4746;35.664;139.738;2023-04-15T10:53:05;98832.09;;;18.43;68.48
9415;BME280;4746;35.664;139.738;2023-04-15T10:55:33;98834.75;;;18.41;68.42
9415;BME280;4746;35.664;139.738;2023-04-15T10:58:02;98825.28;;;18.40;68.34
9415;BME280;4746;35.664;139.738;2023-04-15T11:00:31;98825.22;;;18.42;68.34
9415;BME280;4746;35.664;139.738;2023-04-15T11:03:08;98817.38;;;18.43;68.50
9415;BME280;4746;35.664;139.738;2023-04-15T11:05:53;98795.50;;;18.49;68.17
9415;BME280;4746;35.664;139.738;2023-04-15T11:08:59;98786.63;;;18.53;68.12
9415;BME280;4746;35.664;139.738;2023-04-15T11:12:06;98778.13;;;18.51;68.13
9415;BME280;4746;35.664;139.738;2023-04-15T11:14:40;98800.84;;;18.46;68.05
9415;BME280;4746;35.664;139.738;2023-04-15T11:17:09;98796.63;;;18.43;68.15
9415;BME280;4746;35.664;139.738;2023-04-15T11:19:38;98781.81;;;18.45;68.04
9415;BME280;4746;35.664;139.738;2023-04-15T11:22:10;98764.53;;;18.46;68.22
9415;BME280;4746;35.664;139.738;2023-04-15T11:24:47;98768.78;;;18.47;68.13
9415;BME280;4746;35.664;139.738;2023-04-15T11:27:23;98795.66;;;18.46;68.45
9415;BME280;4746;35.664;139.738;2023-04-15T11:29:51;98795.78;;;18.43;68.30
9415;BME280;4746;35.664;139.738;2023-04-15T11:32:20;98783.59;;;18.45;68.09
9415;BME280;4746;35.664;139.738;2023-04-15T11:34:48;98792.28;;;18.44;68.20
9415;BME280;4746;35.664;139.738;2023-04-15T11:37:15;98794.78;;;18.45;68.49
9415;BME280;4746;35.664;139.738;2023-04-15T11:39:43;98782.81;;;18.43;68.22
9415;BME280;4746;35.664;139.738;2023-04-15T11:42:17;98768.84;;;18.45;68.05
9415;BME280;4746;35.664;139.738;2023-04-15T11:44:45;98743.00;;;18.44;68.51
9415;BME280;4746;35.664;139.738;2023-04-15T11:47:23;98745.28;;;18.50;68.49
9415;BME280;4746;35.664;139.738;2023-04-15T11:49:51;98754.97;;;18.46;68.52
9415;BME280;4746;35.664;139.738;2023-04-15T11:52:18;98753.28;;;18.45;68.34
9415;BME280;4746;35.664;139.738;2023-04-15T11:54:47;98738.63;;;18.44;68.68
9415;BME280;4746;35.664;139.738;2023-04-15T11:57:15;98750.78;;;18.44;68.36
9415;BME280;4746;35.664;139.738;2023-04-15T11:59:43;98756.03;;;18.42;68.24
9415;BME280;4746;35.664;139.738;2023-04-15T12:02:12;98744.06;;;18.40;68.00
9415;BME280;4746;35.664;139.738;2023-04-15T12:04:40;98740.00;;;18.34;68.42
9415;BME280;4746;35.664;139.738;2023-04-15T12:07:08;98755.63;;;18.33;68.58
9415;BME280;4746;35.664;139.738;2023-04-15T12:09:38;98743.56;;;18.32;68.37
9415;BME280;4746;35.664;139.738;2023-04-15T12:12:06;98739.38;;;18.29;68.43
9415;BME280;4746;35.664;139.738;2023-04-15T12:14:34;98741.16;;;18.29;68.92
9415;BME280;4746;35.664;139.738;2023-04-15T12:17:05;98740.97;;;18.32;69.07
9415;BME280;4746;35.664;139.738;2023-04-15T12:19:41;98739.16;;;18.34;68.56
9415;BME280;4746;35.664;139.738;2023-04-15T12:22:14;98724.66;;;18.30;68.89
9415;BME280;4746;35.664;139.738;2023-04-15T12:24:43;98725.59;;;18.29;68.51
9415;BME280;4746;35.664;139.738;2023-04-15T12:27:15;98718.91;;;18.23;68.58
9415;BME280;4746;35.664;139.738;2023-04-15T12:29:43;98708.75;;;18.19;69.01
9415;BME280;4746;35.664;139.738;2023-04-15T12:32:15;98713.94;;;18.19;69.06
9415;BME280;4746;35.664;139.738;2023-04-15T12:34:53;98707.03;;;18.19;68.91
9415;BME280;4746;35.664;139.738;2023-04-15T12:37:21;98709.72;;;18.16;69.04
9415;BME280;4746;35.664;139.738;2023-04-15T12:39:50;98687.03;;;18.21;69.09
9415;BME280;4746;35.664;139.738;2023-04-15T12:42:18;98682.72;;;18.22;68.99
9415;BME280;4746;35.664;139.738;2023-04-15T12:44:46;98675.84;;;18.21;69.28
9415;BME280;4746;35.664;139.738;2023-04-15T12:47:14;98675.84;;;18.21;69.28
9415;BME280;4746;35.664;139.738;2023-04-15T12:49:41;98669.75;;;18.22;68.90
9415;BME280;4746;35.664;139.738;2023-04-15T12:52:09;98686.22;;;18.21;68.93
9415;BME280;4746;35.664;139.738;2023-04-15T12:54:38;98684.38;;;18.23;69.02
9415;BME280;4746;35.664;139.738;2023-04-15T12:57:05;98665.47;;;18.21;69.24
9415;BME280;4746;35.664;139.738;2023-04-15T12:59:34;98636.88;;;18.22;69.11
9415;BME280;4746;35.664;139.738;2023-04-15T13:02:02;98621.38;;;18.21;69.11
9415;BME280;4746;35.664;139.738;2023-04-15T13:04:32;98606.59;;;18.23;69.02
9415;BME280;4746;35.664;139.738;2023-04-15T13:07:00;98600.56;;;18.22;69.08
9415;BME280;4746;35.664;139.738;2023-04-15T13:09:28;98608.44;;;18.21;69.00